createdAt,value
2023-01-02T00:01:32.507Z,98067.47
2023-01-02T00:03:59.839Z,98065.19
2023-01-02T00:06:27.287Z,98062.69
2023-01-02T00:08:54.621Z,98062.91
2023-01-02T00:11:21.928Z,98063.47
2023-01-02T00:13:49.239Z,98066.78
2023-01-02T00:16:16.444Z,98063.56
2023-01-02T00:18:43.832Z,98054.97
2023-01-02T00:21:11.141Z,98046.06
2023-01-02T00:23:38.988Z,98044.47
2023-01-02T00:26:06.920Z,98047.34
2023-01-02T00:28:34.239Z,98044.47
2023-01-02T00:31:14.087Z,98046.41
2023-01-02T00:33:41.507Z,98044.81
2023-01-02T00:36:11.533Z,98037.03
2023-01-02T00:38:41.173Z,98052.69
2023-01-02T00:41:09.105Z,98043.00
2023-01-02T00:43:37.383Z,98040.84
2023-01-02T00:46:11.186Z,98038.19
2023-01-02T00:48:39.988Z,98044.84
2023-01-02T00:51:07.717Z,98032.84
2023-01-02T00:53:35.817Z,98031.47
2023-01-02T00:56:03.154Z,98037.41
2023-01-02T00:58:30.390Z,98039.03
2023-01-02T01:00:57.631Z,98034.09
2023-01-02T01:03:24.875Z,98031.69
2023-01-02T01:05:52.155Z,98035.16
2023-01-02T01:08:19.453Z,98036.75
2023-01-02T01:10:46.683Z,98031.00
2023-01-02T01:13:13.896Z,98036.63
2023-01-02T01:15:41.112Z,98029.88
2023-01-02T01:18:08.351Z,98027.59
2023-01-02T01:20:39.463Z,98017.50
2023-01-02T01:23:06.694Z,98022.00
2023-01-02T01:25:33.886Z,98017.88
2023-01-02T01:28:01.148Z,98019.00
2023-01-02T01:30:28.346Z,98014.19
2023-01-02T01:32:55.513Z,98016.72
2023-01-02T01:35:22.753Z,98013.50
2023-01-02T01:37:49.946Z,98012.69
2023-01-02T01:40:17.207Z,98010.50
2023-01-02T01:42:44.399Z,98006.16
2023-01-02T01:45:16.731Z,98003.53
2023-01-02T01:48:02.912Z,97991.63
2023-01-02T01:50:34.985Z,97992.91
2023-01-02T01:53:16.374Z,97988.19
2023-01-02T01:55:57.420Z,97985.34
2023-01-02T01:58:35.540Z,97984.88
2023-01-02T02:01:04.120Z,97981.44
2023-01-02T02:03:34.968Z,97977.66
2023-01-02T02:06:03.350Z,97981.75
2023-01-02T02:08:48.326Z,97968.78
2023-01-02T02:11:16.567Z,97967.09
2023-01-02T02:13:43.995Z,97966.22
2023-01-02T02:16:25.834Z,97955.63
2023-01-02T02:19:17.391Z,97955.91
2023-01-02T02:22:22.789Z,97951.88
2023-01-02T02:25:27.844Z,97957.59
2023-01-02T02:28:28.927Z,97946.72
2023-01-02T02:31:14.589Z,97954.28
2023-01-02T02:33:53.900Z,97954.28
2023-01-02T02:36:53.797Z,97947.16
2023-01-02T02:40:28.265Z,97945.78
2023-01-02T02:43:59.259Z,97940.19
2023-01-02T02:46:55.019Z,97942.56
2023-01-02T02:49:59.652Z,97941.06
2023-01-02T02:53:00.963Z,97939.47
2023-01-02T02:56:01.026Z,97935.13
2023-01-02T02:58:30.095Z,97939.94
2023-01-02T03:01:13.097Z,97931.59
2023-01-02T03:03:40.463Z,97940.75
2023-01-02T03:06:39.740Z,97931.25
2023-01-02T03:09:28.275Z,97933.81
2023-01-02T03:12:39.805Z,97931.13
2023-01-02T03:15:18.791Z,97937.03
2023-01-02T03:18:23.787Z,97924.00
2023-01-02T03:21:26.573Z,97932.63
2023-01-02T03:24:01.119Z,97923.00
2023-01-02T03:26:33.103Z,97921.81
2023-01-02T03:29:12.817Z,97927.84
2023-01-02T03:31:44.100Z,97928.50
2023-01-02T03:34:16.412Z,97929.69
2023-01-02T03:36:48.655Z,97921.88
2023-01-02T03:39:20.068Z,97921.97
2023-01-02T03:41:58.159Z,97920.69
2023-01-02T03:44:34.114Z,97915.81
2023-01-02T03:47:56.518Z,97908.63
2023-01-02T03:50:48.379Z,97910.69
2023-01-02T03:53:15.821Z,97896.75
2023-01-02T03:56:22.394Z,97904.25
2023-01-02T03:59:10.571Z,97909.28
2023-01-02T04:02:00.249Z,97910.63
2023-01-02T04:04:59.720Z,97905.50
2023-01-02T04:07:52.953Z,97898.97
2023-01-02T04:10:21.491Z,97903.53
2023-01-02T04:12:54.233Z,97902.50
2023-01-02T04:15:26.703Z,97899.63
2023-01-02T04:18:05.818Z,97884.31
2023-01-02T04:20:42.097Z,97884.81
2023-01-02T04:23:32.370Z,97893.09
2023-01-02T04:26:17.167Z,97894.38
2023-01-02T04:28:44.546Z,97893.75
2023-01-02T04:31:33.697Z,97896.34
2023-01-02T04:34:02.832Z,97890.03
2023-01-02T04:36:30.525Z,97890.50
2023-01-02T04:38:57.868Z,97895.31
2023-01-02T04:41:27.282Z,97893.72
2023-01-02T04:43:56.345Z,97887.81
2023-01-02T04:46:25.736Z,97894.44
2023-01-02T04:48:54.332Z,97897.97
2023-01-02T04:51:22.926Z,97894.69
2023-01-02T04:53:54.270Z,97898.75
2023-01-02T04:56:22.276Z,97895.34
2023-01-02T04:58:50.653Z,97892.22
2023-01-02T05:01:21.782Z,97887.97
2023-01-02T05:03:52.958Z,97886.22
2023-01-02T05:06:20.730Z,97882.25
2023-01-02T05:08:47.985Z,97876.91
2023-01-02T05:11:18.626Z,97869.97
2023-01-02T05:13:46.434Z,97881.78
2023-01-02T05:16:14.099Z,97869.97
2023-01-02T05:18:41.708Z,97880.41
2023-01-02T05:21:30.834Z,97871.41
2023-01-02T05:24:01.517Z,97869.25
2023-01-02T05:26:30.825Z,97878.66
2023-01-02T05:28:58.113Z,97875.03
2023-01-02T05:31:25.997Z,97867.22
2023-01-02T05:33:55.002Z,97869.31
2023-01-02T05:36:24.468Z,97867.72
2023-01-02T05:38:52.813Z,97867.41
2023-01-02T05:41:21.917Z,97868.53
2023-01-02T05:43:49.346Z,97862.72
2023-01-02T05:46:19.621Z,97869.81
2023-01-02T05:48:47.597Z,97874.78
2023-01-02T05:51:18.065Z,97874.38
2023-01-02T05:53:45.862Z,97872.47
2023-01-02T05:56:18.649Z,97877.91
2023-01-02T05:58:49.613Z,97869.06
2023-01-02T06:01:21.181Z,97871.63
2023-01-02T06:03:51.930Z,97870.75
2023-01-02T06:06:24.457Z,97872.19
2023-01-02T06:08:52.233Z,97880.00
2023-01-02T06:11:19.686Z,97867.53
2023-01-02T06:13:46.970Z,97872.50
2023-01-02T06:16:14.336Z,97874.72
2023-01-02T06:18:41.971Z,97875.47
2023-01-02T06:21:13.467Z,97879.16
2023-01-02T06:23:42.265Z,97872.25
2023-01-02T06:26:16.236Z,97874.00
2023-01-02T06:28:44.371Z,97878.56
2023-01-02T06:31:16.962Z,97874.81
2023-01-02T06:33:45.344Z,97871.22
2023-01-02T06:36:16.971Z,97864.34
2023-01-02T06:38:46.040Z,97858.53
2023-01-02T06:41:14.277Z,97869.31
2023-01-02T06:43:48.116Z,97861.81
2023-01-02T06:46:18.519Z,97866.28
2023-01-02T06:48:46.723Z,97851.19
2023-01-02T06:51:17.922Z,97863.56
2023-01-02T06:53:46.054Z,97857.59
2023-01-02T06:56:16.199Z,97861.41
2023-01-02T06:58:44.121Z,97863.41
2023-01-02T07:01:20.619Z,97857.25
2023-01-02T07:03:49.059Z,97857.06
2023-01-02T07:06:19.747Z,97866.66
2023-01-02T07:08:48.732Z,97864.03
2023-01-02T07:11:20.332Z,97858.94
2023-01-02T07:13:50.262Z,97868.91
2023-01-02T07:16:20.118Z,97872.25
2023-01-02T07:18:47.670Z,97866.97
2023-01-02T07:21:18.291Z,97870.41
2023-01-02T07:23:45.936Z,97867.44
2023-01-02T07:26:13.981Z,97868.31
2023-01-02T07:28:41.673Z,97875.03
2023-01-02T07:31:14.151Z,97881.16
2023-01-02T07:33:41.932Z,97884.03
2023-01-02T07:36:13.760Z,97876.47
2023-01-02T07:38:41.019Z,97882.41
2023-01-02T07:41:16.965Z,97880.56
2023-01-02T07:43:46.045Z,97888.28
2023-01-02T07:46:16.370Z,97890.22
2023-01-02T07:48:44.631Z,97891.59
2023-01-02T07:51:12.955Z,97889.81
2023-01-02T07:53:41.694Z,97888.19
2023-01-02T07:56:09.843Z,97885.97
2023-01-02T07:58:37.756Z,97891.34
2023-01-02T08:01:11.188Z,97886.56
2023-01-02T08:03:38.864Z,97893.34
2023-01-02T08:06:09.863Z,97892.69
2023-01-02T08:08:37.673Z,97886.09
2023-01-02T08:11:18.020Z,97886.63
2023-01-02T08:13:45.678Z,97898.78
2023-01-02T08:16:16.678Z,97889.72
2023-01-02T08:18:44.005Z,97895.72
2023-01-02T08:21:11.905Z,97899.53
2023-01-02T08:23:39.638Z,97898.22
2023-01-02T08:26:09.111Z,97902.19
2023-01-02T08:28:38.964Z,97907.38
2023-01-02T08:31:17.160Z,97905.16
2023-01-02T08:33:44.979Z,97908.03
2023-01-02T08:36:14.663Z,97900.19
2023-01-02T08:38:43.087Z,97893.06
2023-01-02T08:41:10.859Z,97899.53
2023-01-02T08:43:38.588Z,97893.75
2023-01-02T08:46:08.509Z,97896.50
2023-01-02T08:48:36.459Z,97902.44
2023-01-02T08:51:04.873Z,97897.84
2023-01-02T08:53:32.226Z,97903.41
2023-01-02T08:56:27.706Z,97892.34
2023-01-02T08:59:05.237Z,97892.72
2023-01-02T09:01:33.819Z,97899.19
2023-01-02T09:04:09.389Z,97896.38
2023-01-02T09:06:39.177Z,97897.88
2023-01-02T09:09:11.637Z,97885.59
2023-01-02T09:11:50.907Z,97889.94
2023-01-02T09:14:22.480Z,97881.69
2023-01-02T09:16:51.758Z,97886.47
2023-01-02T09:19:19.648Z,97876.97
2023-01-02T09:21:47.472Z,97873.50
2023-01-02T09:24:14.812Z,97875.31
2023-01-02T09:26:42.643Z,97875.69
2023-01-02T09:29:11.965Z,97875.44
2023-01-02T09:31:40.319Z,97869.63
2023-01-02T09:34:07.977Z,97863.50
2023-01-02T09:36:35.726Z,97867.09
2023-01-02T09:39:04.093Z,97856.53
2023-01-02T09:41:38.680Z,97854.97
2023-01-02T09:44:31.359Z,97842.00
2023-01-02T09:47:11.591Z,97836.94
2023-01-02T09:50:04.067Z,97835.03
2023-01-02T09:52:37.956Z,97840.34
2023-01-02T09:55:16.654Z,97827.94
2023-01-02T09:57:53.181Z,97822.63
2023-01-02T10:00:25.864Z,97822.31
2023-01-02T10:03:40.656Z,97820.81
2023-01-02T10:06:24.947Z,97823.53
2023-01-02T10:09:19.892Z,97820.81
2023-01-02T10:12:35.724Z,97817.16
2023-01-02T10:15:13.823Z,97823.84
2023-01-02T10:17:50.458Z,97815.81
2023-01-02T10:20:54.278Z,97820.66
2023-01-02T10:23:29.655Z,97808.81
2023-01-02T10:26:03.472Z,97811.66
2023-01-02T10:28:57.690Z,97806.78
2023-01-02T10:32:00.216Z,97811.84
2023-01-02T10:34:50.109Z,97808.28
2023-01-02T10:37:17.834Z,97813.31
2023-01-02T10:39:48.624Z,97799.91
2023-01-02T10:42:17.035Z,97806.81
2023-01-02T10:44:46.927Z,97800.59
2023-01-02T10:47:26.554Z,97791.66
2023-01-02T10:49:54.438Z,97787.00
2023-01-02T10:52:27.744Z,97782.38
2023-01-02T10:55:00.649Z,97783.91
2023-01-02T10:57:51.554Z,97782.69
2023-01-02T11:00:25.524Z,97782.97
2023-01-02T11:03:20.783Z,97780.44
2023-01-02T11:05:52.081Z,97784.91
2023-01-02T11:08:23.597Z,97780.53
2023-01-02T11:10:51.658Z,97776.38
2023-01-02T11:13:21.789Z,97789.94
2023-01-02T11:16:04.219Z,97787.03
2023-01-02T11:18:34.702Z,97784.16
2023-01-02T11:21:06.176Z,97775.38
2023-01-02T11:23:43.048Z,97766.16
2023-01-02T11:26:22.707Z,97767.53
2023-01-02T11:28:53.608Z,97762.28
2023-01-02T11:31:23.049Z,97758.06
2023-01-02T11:33:50.413Z,97763.41
2023-01-02T11:36:19.894Z,97754.78
2023-01-02T11:38:56.899Z,97753.63
2023-01-02T11:42:18.235Z,97747.06
2023-01-02T11:45:02.001Z,97733.16
2023-01-02T11:47:48.740Z,97741.41
2023-01-02T11:50:27.816Z,97737.28
2023-01-02T11:53:02.829Z,97738.03
2023-01-02T11:56:27.220Z,97744.63
2023-01-02T11:59:09.512Z,97743.22
2023-01-02T12:01:51.706Z,97734.75
2023-01-02T12:04:19.082Z,97730.06
2023-01-02T12:06:55.330Z,97741.81
2023-01-02T12:09:35.419Z,97732.22
2023-01-02T12:12:17.075Z,97737.31
2023-01-02T12:15:24.185Z,97739.34
2023-01-02T12:18:31.010Z,97744.69
2023-01-02T12:21:19.776Z,97749.38
2023-01-02T12:24:19.850Z,97752.28
2023-01-02T12:27:08.090Z,97734.53
2023-01-02T12:30:03.121Z,97733.22
2023-01-02T12:33:01.523Z,97732.38
2023-01-02T12:35:56.233Z,97735.53
2023-01-02T12:39:01.884Z,97727.19
2023-01-02T12:42:02.533Z,97730.00
2023-01-02T12:44:49.937Z,97732.94
2023-01-02T12:47:44.432Z,97733.88
2023-01-02T12:50:17.421Z,97732.16
2023-01-02T12:53:24.647Z,97734.09
2023-01-02T12:56:12.980Z,97733.00
2023-01-02T12:59:10.689Z,97731.03
2023-01-02T13:01:54.524Z,97727.53
2023-01-02T13:04:42.574Z,97727.78
2023-01-02T13:07:14.400Z,97724.06
2023-01-02T13:09:46.221Z,97721.53
2023-01-02T13:12:26.869Z,97717.59
2023-01-02T13:15:01.100Z,97714.41
2023-01-02T13:17:51.082Z,97720.16
2023-01-02T13:21:00.650Z,97725.84
2023-01-02T13:23:40.231Z,97728.41
2023-01-02T13:26:16.645Z,97723.91
2023-01-02T13:29:06.937Z,97718.25
2023-01-02T13:31:47.793Z,97721.03
2023-01-02T13:34:23.345Z,97717.38
2023-01-02T13:36:58.527Z,97715.63
2023-01-02T13:39:39.620Z,97722.47
2023-01-02T13:42:40.245Z,97728.69
2023-01-02T13:45:37.214Z,97718.13
2023-01-02T13:48:37.855Z,97720.13
2023-01-02T13:51:21.027Z,97713.53
2023-01-02T13:53:52.748Z,97716.13
2023-01-02T13:56:20.702Z,97714.97
2023-01-02T13:59:41.902Z,97723.78
2023-01-02T14:02:21.124Z,97718.47
2023-01-02T14:04:49.097Z,97722.56
2023-01-02T14:07:25.395Z,97722.75
2023-01-02T14:10:40.125Z,97721.75
2023-01-02T14:13:12.698Z,97717.72
2023-01-02T14:16:22.558Z,97719.94
2023-01-02T14:19:14.813Z,97723.47
2023-01-02T14:21:59.139Z,97728.09
2023-01-02T14:24:37.854Z,97728.06
2023-01-02T14:27:21.149Z,97729.16
2023-01-02T14:30:06.680Z,97726.53
2023-01-02T14:32:47.035Z,97718.06
2023-01-02T14:35:14.221Z,97729.22
2023-01-02T14:38:19.642Z,97740.88
2023-01-02T14:40:47.879Z,97741.44
2023-01-02T14:43:37.899Z,97735.06
2023-01-02T14:46:05.186Z,97747.50
2023-01-02T14:48:56.837Z,97739.84
2023-01-02T14:51:37.167Z,97739.56
2023-01-02T14:54:18.974Z,97745.09
2023-01-02T14:57:12.335Z,97743.25
2023-01-02T14:59:47.454Z,97748.28
2023-01-02T15:02:20.021Z,97757.22
2023-01-02T15:04:57.516Z,97761.91
2023-01-02T15:07:36.821Z,97756.38
2023-01-02T15:10:24.141Z,97763.78
2023-01-02T15:13:07.270Z,97771.59
2023-01-02T15:15:45.950Z,97779.25
2023-01-02T15:18:18.948Z,97782.13
2023-01-02T15:21:09.595Z,97780.25
2023-01-02T15:23:42.252Z,97795.97
2023-01-02T15:26:33.868Z,97794.66
2023-01-02T15:29:06.937Z,97799.66
2023-01-02T15:31:34.423Z,97804.88
2023-01-02T15:34:02.226Z,97804.63
2023-01-02T15:36:39.743Z,97805.88
2023-01-02T15:39:16.103Z,97811.16
2023-01-02T15:41:54.517Z,97812.41
2023-01-02T15:44:48.455Z,97816.91
2023-01-02T15:47:20.089Z,97822.75
2023-01-02T15:49:49.818Z,97826.41
2023-01-02T15:52:26.946Z,97829.94
2023-01-02T15:54:54.754Z,97827.00
2023-01-02T15:57:29.950Z,97823.31
2023-01-02T15:59:57.529Z,97825.41
2023-01-02T16:02:44.795Z,97825.94
2023-01-02T16:05:18.934Z,97826.06
2023-01-02T16:07:58.905Z,97821.91
2023-01-02T16:10:30.673Z,97831.09
2023-01-02T16:13:28.196Z,97827.59
2023-01-02T16:15:58.902Z,97830.00
2023-01-02T16:18:49.503Z,97821.03
2023-01-02T16:21:18.396Z,97814.13
2023-01-02T16:23:54.319Z,97825.16
2023-01-02T16:26:32.440Z,97815.94
2023-01-02T16:28:59.937Z,97814.19
2023-01-02T16:31:29.116Z,97813.59
2023-01-02T16:34:14.751Z,97822.56
2023-01-02T16:36:42.473Z,97825.28
2023-01-02T16:39:49.453Z,97822.59
2023-01-02T16:42:37.660Z,97810.41
2023-01-02T16:45:06.873Z,97813.19
2023-01-02T16:47:41.513Z,97819.56
2023-01-02T16:50:18.083Z,97825.97
2023-01-02T16:52:46.062Z,97823.50
2023-01-02T16:55:20.299Z,97818.56
2023-01-02T16:57:50.566Z,97823.81
2023-01-02T17:00:19.718Z,97830.22
2023-01-02T17:02:47.835Z,97822.81
2023-01-02T17:05:41.851Z,97821.53
2023-01-02T17:08:09.237Z,97812.25
2023-01-02T17:10:36.515Z,97827.03
2023-01-02T17:13:05.079Z,97828.47
2023-01-02T17:15:32.457Z,97829.00
2023-01-02T17:18:00.075Z,97830.09
2023-01-02T17:20:28.437Z,97832.44
2023-01-02T17:22:56.073Z,97833.00
2023-01-02T17:25:23.529Z,97827.34
2023-01-02T17:27:51.168Z,97836.91
2023-01-02T17:30:18.567Z,97842.16
2023-01-02T17:32:47.241Z,97840.34
2023-01-02T17:35:15.789Z,97836.19
2023-01-02T17:37:43.488Z,97834.13
2023-01-02T17:40:13.266Z,97833.31
2023-01-02T17:42:43.212Z,97832.13
2023-01-02T17:45:11.689Z,97825.19
2023-01-02T17:48:00.700Z,97820.34
2023-01-02T17:50:27.259Z,97816.66
2023-01-02T17:52:54.552Z,97814.72
2023-01-02T17:55:21.903Z,97812.78
2023-01-02T17:57:49.877Z,97812.03
2023-01-02T18:00:18.387Z,97826.38
2023-01-02T18:02:45.751Z,97816.25
2023-01-02T18:05:13.205Z,97808.50
2023-01-02T18:07:40.528Z,97821.19
2023-01-02T18:10:09.980Z,97821.69
2023-01-02T18:12:39.713Z,97830.81
2023-01-02T18:15:14.043Z,97822.88
2023-01-02T18:17:41.579Z,97835.91
2023-01-02T18:21:00.771Z,97844.78
2023-01-02T18:23:28.113Z,97847.25
2023-01-02T18:26:00.946Z,97854.28
2023-01-02T18:28:30.140Z,97843.41
2023-01-02T18:30:59.995Z,97834.56
2023-01-02T18:33:28.373Z,97841.06
2023-01-02T18:36:02.676Z,97847.44
2023-01-02T18:38:38.198Z,97852.63
2023-01-02T18:41:19.220Z,97854.13
2023-01-02T18:43:49.719Z,97853.22
2023-01-02T18:46:23.534Z,97855.44
2023-01-02T18:48:52.125Z,97854.03
2023-01-02T18:51:23.571Z,97859.06
2023-01-02T18:53:54.111Z,97861.13
2023-01-02T18:56:30.964Z,97856.41
2023-01-02T18:59:31.141Z,97851.00
2023-01-02T19:02:03.774Z,97858.31
2023-01-02T19:04:39.645Z,97852.84
2023-01-02T19:07:31.421Z,97856.69
2023-01-02T19:10:31.349Z,97859.66
2023-01-02T19:13:08.072Z,97854.97
2023-01-02T19:16:00.596Z,97855.78
2023-01-02T19:18:49.102Z,97855.97
2023-01-02T19:21:26.933Z,97863.09
2023-01-02T19:24:25.255Z,97856.69
2023-01-02T19:26:58.826Z,97863.09
2023-01-02T19:29:35.419Z,97856.59
2023-01-02T19:32:25.349Z,97850.84
2023-01-02T19:34:59.906Z,97849.34
2023-01-02T19:37:41.642Z,97862.72
2023-01-02T19:40:22.047Z,97859.63
2023-01-02T19:42:54.593Z,97848.41
2023-01-02T19:45:28.046Z,97847.28
2023-01-02T19:47:55.599Z,97845.31
2023-01-02T19:50:26.952Z,97851.09
2023-01-02T19:52:54.521Z,97851.66
2023-01-02T19:55:47.426Z,97853.47
2023-01-02T19:58:14.840Z,97855.88
2023-01-02T20:00:45.762Z,97853.72
2023-01-02T20:03:15.021Z,97851.59
2023-01-02T20:05:44.853Z,97856.16
2023-01-02T20:08:12.279Z,97865.16
2023-01-02T20:10:39.861Z,97851.72
2023-01-02T20:13:07.212Z,97870.78
2023-01-02T20:15:34.658Z,97869.31
2023-01-02T20:18:08.365Z,97874.94
2023-01-02T20:20:36.292Z,97879.56
2023-01-02T20:23:03.818Z,97885.75
2023-01-02T20:25:31.221Z,97887.69
2023-01-02T20:27:59.957Z,97898.56
2023-01-02T20:30:27.400Z,97893.47
2023-01-02T20:32:55.806Z,97891.06
2023-01-02T20:35:23.675Z,97897.47
2023-01-02T20:37:51.155Z,97909.34
2023-01-02T20:40:18.582Z,97918.69
2023-01-02T20:42:46.045Z,97914.91
2023-01-02T20:45:14.104Z,97919.63
2023-01-02T20:47:41.930Z,97927.38
2023-01-02T20:50:09.655Z,97924.50
2023-01-02T20:52:37.079Z,97926.13
2023-01-02T20:55:04.784Z,97930.56
2023-01-02T20:57:32.340Z,97939.38
2023-01-02T21:00:01.585Z,97945.63
2023-01-02T21:02:29.474Z,97938.91
2023-01-02T21:04:56.943Z,97956.16
2023-01-02T21:07:24.316Z,97958.66
2023-01-02T21:09:57.619Z,97965.88
2023-01-02T21:12:43.743Z,97973.19
2023-01-02T21:15:32.237Z,97973.75
2023-01-02T21:18:00.005Z,97986.56
2023-01-02T21:20:27.736Z,97992.16
2023-01-02T21:22:55.017Z,97984.50
2023-01-02T21:25:22.286Z,97990.06
2023-01-02T21:27:49.705Z,97989.63
2023-01-02T21:30:17.097Z,98001.06
2023-01-02T21:32:44.800Z,97994.06
2023-01-02T21:35:12.173Z,97997.81
2023-01-02T21:37:39.660Z,97993.16
2023-01-02T21:40:08.175Z,97993.06
2023-01-02T21:42:42.554Z,97995.94
2023-01-02T21:45:12.129Z,97990.75
2023-01-02T21:47:39.470Z,97990.06
2023-01-02T21:50:07.559Z,97985.25
2023-01-02T21:52:35.133Z,97994.22
2023-01-02T21:55:02.526Z,97989.72
2023-01-02T21:58:02.712Z,97990.25
2023-01-02T22:00:21.367Z,97998.91
2023-01-02T22:02:48.815Z,98006.78
2023-01-02T22:05:18.397Z,98008.50
2023-01-02T22:07:46.081Z,98014.66
2023-01-02T22:10:15.543Z,98008.84
2023-01-02T22:12:43.841Z,98010.13
2023-01-02T22:15:12.870Z,98013.53
2023-01-02T22:17:40.642Z,98022.41
2023-01-02T22:20:09.559Z,98023.72
2023-01-02T22:22:37.044Z,98011.78
2023-01-02T22:25:05.444Z,98017.94
2023-01-02T22:27:33.445Z,98014.19
2023-01-02T22:30:21.609Z,98009.81
2023-01-02T22:32:49.986Z,98012.09
2023-01-02T22:35:17.623Z,98007.00
2023-01-02T22:37:44.937Z,98009.34
2023-01-02T22:40:13.063Z,98008.47
2023-01-02T22:43:05.694Z,98008.31
2023-01-02T22:45:44.114Z,98012.84
2023-01-02T22:48:28.255Z,98011.47
2023-01-02T22:50:59.304Z,98023.47
2023-01-02T22:53:32.137Z,98026.31
2023-01-02T22:56:02.162Z,98021.56
2023-01-02T22:58:29.681Z,98023.19
2023-01-02T23:01:10.226Z,98029.69
2023-01-02T23:03:41.333Z,98021.94
2023-01-02T23:06:08.705Z,98017.81
2023-01-02T23:08:36.287Z,98024.41
2023-01-02T23:11:05.310Z,98017.13
2023-01-02T23:13:34.439Z,98023.53
2023-01-02T23:16:21.369Z,98023.44
2023-01-02T23:19:07.471Z,98021.03
2023-01-02T23:21:37.311Z,98018.00
2023-01-02T23:24:06.925Z,98011.31
2023-01-02T23:26:48.537Z,98023.56
2023-01-02T23:29:16.994Z,98021.22
2023-01-02T23:31:48.825Z,98031.50
2023-01-02T23:34:20.755Z,98025.69
2023-01-02T23:36:48.019Z,98015.47
2023-01-02T23:39:19.649Z,98014.31
2023-01-02T23:41:48.349Z,98018.50
2023-01-02T23:44:16.740Z,98019.06
2023-01-02T23:46:45.243Z,98022.50
2023-01-02T23:49:13.780Z,98029.28
2023-01-02T23:51:42.189Z,98030.53
2023-01-02T23:54:13.034Z,98029.63
2023-01-02T23:56:42.221Z,98034.47
2023-01-02T23:59:14.742Z,98027.41
